Time;durP1;ratioP1;P1;durP2;ratioP2;P2;SDS_P1;SDS_P2;PMS_P1;PMS_P2;Temp;Humidity;BMP_temperature;BMP_pressure;BME280_temperature;BME280_humidity;BME280_pressure;Samples;Min_cycle;Max_cycle;Signal;HPM_P1;HPM_P2
2020/12/08 00:00:39;;;;;;;48.90;27.93;;;;;;;1.56;75.32;99780.53;126611;1098;23549;-77
2020/12/08 00:03:07;;;;;;;49.08;26.40;;;;;;;1.54;75.75;99791.42;126672;1098;23395;-78
2020/12/08 00:05:35;;;;;;;45.15;26.90;;;;;;;1.55;75.76;99781.50;126590;1098;24181;-78
2020/12/08 00:08:04;;;;;;;40.50;25.07;;;;;;;1.54;75.75;99777.98;126693;1098;23334;-77
2020/12/08 00:10:33;;;;;;;42.73;26.85;;;;;;;1.53;75.67;99778.12;126666;1098;23334;-77
2020/12/08 00:13:01;;;;;;;37.73;25.17;;;;;;;1.52;75.86;99777.28;126633;1098;23392;-76
2020/12/08 00:15:30;;;;;;;43.85;31.82;;;;;;;1.53;75.95;99780.80;126643;1098;23346;-76
2020/12/08 00:17:59;;;;;;;44.33;27.37;;;;;;;1.54;75.68;99785.20;126676;1098;23338;-76
2020/12/08 00:20:27;;;;;;;38.15;24.32;;;;;;;1.55;75.99;99776.97;126649;1098;24807;-77
2020/12/08 00:22:56;;;;;;;35.98;24.87;;;;;;;1.51;75.89;99770.19;126675;1098;23458;-77
2020/12/08 00:25:25;;;;;;;51.48;29.30;;;;;;;1.50;75.81;99771.20;126724;1099;23328;-77
2020/12/08 00:27:53;;;;;;;45.28;26.55;;;;;;;1.49;76.17;99780.24;126659;1098;23499;-78
2020/12/08 00:30:22;;;;;;;46.88;27.27;;;;;;;1.48;76.00;99775.04;126436;1098;23436;-80
2020/12/08 00:32:51;;;;;;;45.03;27.30;;;;;;;1.47;76.19;99768.79;126622;1098;23370;-76
2020/12/08 00:35:19;;;;;;;37.30;22.42;;;;;;;1.45;76.22;99760.02;126700;1098;25078;-77
2020/12/08 00:37:48;;;;;;;39.85;22.45;;;;;;;1.45;76.18;99770.78;126583;1098;23330;-76
2020/12/08 00:40:16;;;;;;;38.20;25.82;;;;;;;1.42;76.41;99777.30;126641;1098;27340;-78
2020/12/08 00:42:44;;;;;;;39.33;23.92;;;;;;;1.41;76.54;99786.38;126666;1098;26594;-78
2020/12/08 00:45:14;;;;;;;45.50;28.40;;;;;;;1.40;76.33;99779.28;126666;1098;23475;-78
2020/12/08 00:47:47;;;;;;;44.50;26.80;;;;;;;1.41;76.43;99785.53;126671;1098;26764;-78
2020/12/08 00:50:16;;;;;;;39.17;24.60;;;;;;;1.38;76.31;99783.96;126591;1098;23349;-77
2020/12/08 00:52:44;;;;;;;41.77;25.52;;;;;;;1.39;76.35;99782.98;126629;1098;23359;-78
2020/12/08 00:55:15;;;;;;;47.30;27.85;;;;;;;1.38;76.37;99792.02;126657;1098;23346;-78
2020/12/08 00:57:46;;;;;;;43.33;26.35;;;;;;;1.40;76.33;99781.13;126652;1098;23336;-76
2020/12/08 01:00:19;;;;;;;43.78;24.95;;;;;;;1.40;76.45;99779.28;126618;1098;28034;-78
2020/12/08 01:02:48;;;;;;;40.83;25.00;;;;;;;1.40;76.90;99771.22;126676;1099;23369;-77
2020/12/08 01:05:17;;;;;;;41.33;24.20;;;;;;;1.38;76.57;99777.74;126591;1098;23385;-77
2020/12/08 01:07:47;;;;;;;34.92;23.10;;;;;;;1.37;76.54;99776.91;126670;1098;23561;-77
2020/12/08 01:10:22;;;;;;;45.58;27.98;;;;;;;1.36;76.26;99777.88;126629;1099;23385;-77
2020/12/08 01:12:50;;;;;;;38.65;23.57;;;;;;;1.36;76.32;99772.51;126705;1098;23617;-77
2020/12/08 01:15:18;;;;;;;40.65;24.67;;;;;;;1.35;76.58;99770.83;126621;1098;23362;-76
2020/12/08 01:17:47;;;;;;;39.15;22.82;;;;;;;1.35;76.66;99761.92;126687;1098;26510;-78
2020/12/08 01:20:16;;;;;;;37.75;23.05;;;;;;;1.31;76.21;99761.36;126670;1098;26832;-77
2020/12/08 01:22:45;;;;;;;47.75;27.37;;;;;;;1.32;76.58;99765.73;126651;1099;23325;-77
2020/12/08 01:25:14;;;;;;;39.75;26.93;;;;;;;1.32;76.64;99764.89;126674;1099;23327;-78
2020/12/08 01:27:44;;;;;;;45.83;27.17;;;;;;;1.32;76.69;99763.04;126561;1098;26866;-78
2020/12/08 01:30:12;;;;;;;38.42;23.00;;;;;;;1.31;76.76;99745.23;126701;1098;27903;-79
2020/12/08 01:32:45;;;;;;;42.17;25.88;;;;;;;1.30;76.71;99751.63;126721;1098;23398;-79
2020/12/08 01:35:17;;;;;;;44.25;26.00;;;;;;;1.29;76.51;99747.23;126664;1098;23536;-78
2020/12/08 01:37:49;;;;;;;42.03;23.22;;;;;;;1.29;76.81;99747.23;126603;1098;23399;-77
2020/12/08 01:40:17;;;;;;;40.45;25.32;;;;;;;1.30;76.77;99740.88;126616;1098;23385;-76
2020/12/08 01:42:46;;;;;;;38.53;23.65;;;;;;;1.30;76.44;99751.63;126651;1098;26569;-76
2020/12/08 01:45:14;;;;;;;44.80;26.77;;;;;;;1.29;76.64;99739.16;126598;1098;23385;-77
2020/12/08 01:47:42;;;;;;;43.40;26.95;;;;;;;1.28;76.38;99737.48;126654;1098;23338;-77
2020/12/08 01:50:12;;;;;;;44.13;27.03;;;;;;;1.29;76.68;99736.48;126616;1098;23342;-77
2020/12/08 01:52:41;;;;;;;40.60;24.07;;;;;;;1.28;76.54;99742.86;126580;1098;26466;-77
2020/12/08 01:55:13;;;;;;;41.05;23.45;;;;;;;1.27;76.55;99741.15;126245;1099;23422;-77
2020/12/08 01:57:45;;;;;;;36.50;22.95;;;;;;;1.26;76.62;99747.53;126616;1098;23364;-77
2020/12/08 02:00:15;;;;;;;42.33;26.50;;;;;;;1.26;76.57;99744.84;126676;1098;23398;-78
2020/12/08 02:02:44;;;;;;;40.63;24.20;;;;;;;1.27;76.70;99751.06;126661;1098;23399;-78
2020/12/08 02:05:36;;;;;;;40.45;22.40;;;;;;;1.27;76.50;99762.64;126632;1098;23398;-77
2020/12/08 02:08:04;;;;;;;42.50;24.35;;;;;;;1.25;76.43;99753.88;126679;1098;23822;-77
2020/12/08 02:10:35;;;;;;;43.00;26.70;;;;;;;1.24;76.74;99765.64;126684;1098;23339;-77
2020/12/08 02:13:10;;;;;;;35.25;21.23;;;;;;;1.24;76.53;99754.89;126670;1098;23661;-78
2020/12/08 02:15:42;;;;;;;42.30;24.85;;;;;;;1.22;76.42;99744.28;126602;1098;26405;-77
2020/12/08 02:18:10;;;;;;;47.65;26.02;;;;;;;1.20;76.32;99757.02;126622;1098;25598;-77
2020/12/08 02:20:38;;;;;;;41.33;26.07;;;;;;;1.19;76.60;99760.67;126727;1098;23434;-77
2020/12/08 02:23:08;;;;;;;46.55;29.80;;;;;;;1.20;76.40;99756.17;126666;1099;23341;-78
2020/12/08 02:25:41;;;;;;;49.55;27.90;;;;;;;1.20;76.30;99756.17;126614;1098;23369;-77
2020/12/08 02:28:17;;;;;;;45.65;26.77;;;;;;;1.21;76.41;99752.48;126632;1098;23439;-76
2020/12/08 02:30:46;;;;;;;42.08;24.10;;;;;;;1.21;76.41;99747.11;126671;1098;23322;-79
2020/12/08 02:33:15;;;;;;;41.60;24.72;;;;;;;1.18;76.46;99742.03;126590;1098;23413;-78
2020/12/08 02:35:44;;;;;;;44.35;25.82;;;;;;;1.19;76.22;99733.81;126625;1098;23342;-79
2020/12/08 02:38:12;;;;;;;39.65;24.95;;;;;;;1.18;76.35;99742.03;126687;1098;23334;-77
2020/12/08 02:40:40;;;;;;;36.03;23.45;;;;;;;1.17;76.19;99745.70;126649;1098;23332;-76
2020/12/08 02:43:09;;;;;;;42.70;26.00;;;;;;;1.17;76.26;99745.70;126615;1099;23342;-76
2020/12/08 02:45:37;;;;;;;47.03;27.05;;;;;;;1.15;76.29;99743.19;126670;1099;23386;-76
2020/12/08 02:48:06;;;;;;;45.43;28.00;;;;;;;1.15;76.26;99748.55;126695;1098;23424;-77
2020/12/08 02:50:36;;;;;;;37.13;22.48;;;;;;;1.15;76.29;99753.06;126675;1098;23328;-77
2020/12/08 02:53:06;;;;;;;44.73;25.83;;;;;;;1.13;76.28;99750.54;126607;1098;23346;-76
2020/12/08 02:55:34;;;;;;;40.25;22.48;;;;;;;1.12;76.43;99754.20;126614;1098;23370;-76
2020/12/08 02:58:03;;;;;;;46.47;27.73;;;;;;;1.11;76.21;99757.03;126618;1098;26463;-76
2020/12/08 03:00:32;;;;;;;43.83;28.50;;;;;;;1.10;76.26;99760.72;126602;1098;23387;-76
2020/12/08 03:03:01;;;;;;;39.23;25.32;;;;;;;1.11;76.31;99763.27;126620;1098;27935;-77
2020/12/08 03:05:32;;;;;;;39.85;22.95;;;;;;;1.13;76.57;99774.72;126715;1098;23385;-77
2020/12/08 03:08:00;;;;;;;41.65;26.82;;;;;;;1.13;76.22;99763.10;126743;1098;26405;-77
2020/12/08 03:10:29;;;;;;;39.00;23.43;;;;;;;1.14;76.32;99762.97;126666;1098;23369;-77
2020/12/08 03:12:57;;;;;;;43.03;25.23;;;;;;;1.14;76.18;99762.13;126656;1099;23488;-77
2020/12/08 03:15:26;;;;;;;41.93;24.53;;;;;;;1.15;76.25;99761.12;126675;1099;23390;-78
2020/12/08 03:17:54;;;;;;;37.90;23.47;;;;;;;1.13;76.24;99761.28;126547;1098;23370;-77
2020/12/08 03:20:26;;;;;;;37.03;22.83;;;;;;;1.12;76.39;99764.11;126718;1098;23335;-77
2020/12/08 03:22:54;;;;;;;39.50;23.20;;;;;;;1.10;76.40;99760.72;126680;1098;27353;-77
2020/12/08 03:25:24;;;;;;;32.15;21.25;;;;;;;1.09;76.00;99767.94;126685;1098;23336;-77
2020/12/08 03:27:53;;;;;;;37.95;22.82;;;;;;;1.08;75.90;99768.91;126663;1098;23381;-77
2020/12/08 03:30:22;;;;;;;38.95;24.95;;;;;;;1.07;76.26;99783.35;126654;1099;25447;-77
2020/12/08 03:32:51;;;;;;;39.88;24.92;;;;;;;1.09;76.29;99770.63;126662;1099;23338;-77
2020/12/08 03:35:22;;;;;;;37.85;23.10;;;;;;;1.09;76.50;99776.00;126691;1098;23434;-77
2020/12/08 03:37:52;;;;;;;38.00;23.38;;;;;;;1.10;76.12;99771.47;126688;1098;25199;-78
2020/12/08 03:40:22;;;;;;;43.65;23.85;;;;;;;1.10;76.10;99766.93;126686;1098;24926;-77
2020/12/08 03:42:50;;;;;;;30.55;18.77;;;;;;;1.12;76.28;99766.80;126658;1099;23798;-77
2020/12/08 03:45:19;;;;;;;34.88;20.65;;;;;;;1.11;76.16;99762.40;126670;1098;26811;-78
2020/12/08 03:48:01;;;;;;;31.30;21.95;;;;;;;1.09;76.66;99759.01;126735;1099;26437;-77
2020/12/08 03:50:36;;;;;;;40.17;24.90;;;;;;;1.08;76.42;99760.86;126549;1098;26411;-78
2020/12/08 03:53:05;;;;;;;39.35;24.63;;;;;;;1.08;76.32;99757.33;126615;1098;24624;-78
2020/12/08 03:55:42;;;;;;;42.08;24.50;;;;;;;1.11;76.26;99759.71;126707;1098;23385;-77
2020/12/08 03:58:10;;;;;;;43.07;24.60;;;;;;;1.10;76.40;99760.72;126684;1098;26792;-76
2020/12/08 04:00:39;;;;;;;41.37;22.10;;;;;;;1.09;76.12;99767.06;126748;1099;26792;-76
2020/12/08 04:03:08;;;;;;;38.80;24.02;;;;;;;1.10;76.08;99771.47;126654;1098;26411;-76
2020/12/08 04:05:38;;;;;;;40.17;24.75;;;;;;;1.09;76.06;99764.38;126697;1098;23338;-77
2020/12/08 04:08:08;;;;;;;35.92;23.10;;;;;;;1.09;76.23;99780.50;126638;1098;23395;-77
2020/12/08 04:10:41;;;;;;;37.53;22.17;;;;;;;1.09;76.10;99767.06;126723;1098;26533;-76
2020/12/08 04:13:10;;;;;;;30.08;19.40;;;;;;;1.09;76.14;99759.01;126737;1098;26953;-76
2020/12/08 04:15:39;;;;;;;36.42;21.45;;;;;;;1.07;76.12;99761.86;126696;1098;26575;-77
2020/12/08 04:18:08;;;;;;;38.40;22.50;;;;;;;1.05;76.06;99758.47;126737;1098;23549;-75
2020/12/08 04:20:41;;;;;;;31.35;18.48;;;;;;;1.08;76.26;99749.27;126676;1098;23346;-75
2020/12/08 04:23:13;;;;;;;;;;;;;;;1.05;76.44;99745.05;126752;1098;23328;-76
2020/12/08 04:25:42;;;;;;;34.38;20.20;;;;;;;1.01;76.39;99752.53;126738;1098;24213;-75
2020/12/08 04:28:11;;;;;;;36.03;21.93;;;;;;;1.02;76.40;99742.63;126663;1098;26959;-77
2020/12/08 04:30:40;;;;;;;39.67;25.37;;;;;;;1.03;76.26;99756.93;126696;1098;23459;-76
2020/12/08 04:33:13;;;;;;;42.03;26.73;;;;;;;1.02;76.11;99758.75;126661;1098;23409;-77
2020/12/08 04:35:42;;;;;;;33.55;21.35;;;;;;;1.03;76.32;99762.30;126610;1098;23427;-77
2020/12/08 04:38:10;;;;;;;39.88;23.65;;;;;;;1.04;76.17;99769.36;126653;1098;26843;-77
2020/12/08 04:40:39;;;;;;;32.28;18.92;;;;;;;1.05;76.43;99766.53;126610;1098;26744;-78
2020/12/08 04:43:07;;;;;;;33.20;20.70;;;;;;;1.05;76.27;99771.06;126655;1098;23334;-78
2020/12/08 04:45:35;;;;;;;40.78;22.50;;;;;;;1.05;76.24;99777.28;126695;1099;23541;-78
2020/12/08 04:48:08;;;;;;;38.00;23.62;;;;;;;1.07;76.07;99795.91;126641;1098;23434;-78
2020/12/08 04:50:36;;;;;;;;;;;;;;;1.07;76.05;99780.66;126649;1098;23398;-77
2020/12/08 04:53:06;;;;;;;31.43;19.93;;;;;;;1.05;76.11;99777.28;126730;1098;21615;-77
2020/12/08 04:55:34;;;;;;;31.17;21.10;;;;;;;1.04;75.97;99770.19;126695;1098;23472;-78
2020/12/08 04:58:03;;;;;;;33.15;20.32;;;;;;;1.04;76.19;99780.09;126729;1098;23388;-77
2020/12/08 05:00:40;;;;;;;39.75;23.30;;;;;;;1.04;76.38;99786.31;126655;1099;23398;-78
2020/12/08 05:03:09;;;;;;;39.85;26.10;;;;;;;1.05;76.12;99784.50;126669;1098;23339;-78
2020/12/08 05:05:42;;;;;;;32.63;19.57;;;;;;;1.05;76.27;99788.02;126406;1099;23404;-79
2020/12/08 05:08:13;;;;;;;37.48;23.50;;;;;;;1.05;76.19;99779.96;126252;1098;23445;-77
2020/12/08 05:10:42;;;;;;;31.85;19.55;;;;;;;1.06;76.03;99791.55;126732;1099;23397;-77
2020/12/08 05:13:25;;;;;;;42.85;25.70;;;;;;;1.05;76.15;99779.13;126622;1098;23327;-78
2020/12/08 05:16:06;;;;;;;34.60;23.98;;;;;;;1.07;76.06;99794.09;126630;1098;23382;-78
2020/12/08 05:18:36;;;;;;;40.33;24.25;;;;;;;1.07;75.92;99785.16;126737;1098;23325;-74
2020/12/08 05:21:09;;;;;;;40.78;24.12;;;;;;;1.05;75.99;99787.18;126736;1098;24916;-76
2020/12/08 05:23:38;;;;;;;29.05;16.12;;;;;;;1.05;76.25;99790.70;126641;1098;27181;-77
2020/12/08 05:26:13;;;;;;;42.90;24.15;;;;;;;1.04;76.06;99796.22;126674;1098;23346;-79
2020/12/08 05:28:43;;;;;;;34.75;21.97;;;;;;;1.03;76.10;99797.22;126689;1098;26826;-79
2020/12/08 05:31:11;;;;;;;36.00;24.80;;;;;;;1.03;76.12;99802.59;126655;1098;23396;-79
2020/12/08 05:33:40;;;;;;;42.20;25.62;;;;;;;1.01;76.10;99800.88;126682;1098;24978;-79
2020/12/08 05:36:10;;;;;;;36.25;22.05;;;;;;;1.00;76.06;99793.83;126600;1099;23398;-79
2020/12/08 05:38:39;;;;;;;116.93;52.48;;;;;;;0.99;75.91;99788.59;126600;1098;27623;-79
2020/12/08 05:41:08;;;;;;;88.25;44.40;;;;;;;0.97;76.00;99787.89;126722;1098;23395;-79
2020/12/08 05:43:41;;;;;;;117.50;56.15;;;;;;;0.96;75.93;99803.16;126660;1098;23348;-79
2020/12/08 05:46:10;;;;;;;46.73;29.23;;;;;;;0.97;76.19;99810.21;126642;1098;26789;-79
2020/12/08 05:48:39;;;;;;;45.78;30.15;;;;;;;0.99;76.25;99810.08;126558;1098;23382;-78
2020/12/08 05:51:07;;;;;;;65.42;39.35;;;;;;;0.99;76.32;99807.39;126630;1098;23381;-78
2020/12/08 05:53:36;;;;;;;50.12;32.08;;;;;;;1.01;76.23;99811.63;126668;1098;26856;-78
2020/12/08 05:56:08;;;;;;;1999.90;999.90;;;;;;;1.00;76.30;99809.95;126792;1098;23438;-78
2020/12/08 05:58:37;;;;;;;1999.90;997.15;;;;;;;0.98;76.15;99811.92;126630;1098;23376;-77
2020/12/08 06:01:07;;;;;;;1245.45;784.65;;;;;;;0.97;76.10;99820.95;126630;1098;23338;-76
2020/12/08 06:03:38;;;;;;;919.50;683.30;;;;;;;0.94;75.88;99815.02;126745;1098;23494;-77
2020/12/08 06:06:08;;;;;;;653.20;533.17;;;;;;;0.94;76.18;99821.25;126714;1098;23366;-78
2020/12/08 06:08:50;;;;;;;335.98;246.80;;;;;;;0.93;75.95;99814.17;126769;1098;23360;-77
2020/12/08 06:11:29;;;;;;;225.10;183.35;;;;;;;0.93;75.77;99824.08;126639;1099;23324;-77
2020/12/08 06:13:57;;;;;;;164.07;139.32;;;;;;;0.92;75.91;99822.39;126385;1099;23327;-79
2020/12/08 06:16:25;;;;;;;134.27;97.62;;;;;;;0.92;75.97;99825.08;126582;1098;23404;-77
2020/12/08 06:18:54;;;;;;;84.83;59.13;;;;;;;0.91;75.96;99824.21;126615;1098;23358;-76
2020/12/08 06:21:28;;;;;;;84.83;59.50;;;;;;;0.90;75.63;99835.11;126624;1098;23390;-77
2020/12/08 06:24:01;;;;;;;84.52;53.42;;;;;;;0.86;75.90;99826.48;126593;1098;23328;-76
2020/12/08 06:26:36;;;;;;;62.33;39.95;;;;;;;0.85;75.80;99838.20;126676;1098;23314;-77
2020/12/08 06:29:08;;;;;;;72.25;45.95;;;;;;;0.84;76.00;99825.78;126697;1098;23428;-78
2020/12/08 06:31:45;;;;;;;60.98;34.35;;;;;;;0.85;76.14;99843.57;126686;1098;25258;-77
2020/12/08 06:34:20;;;;;;;55.58;35.70;;;;;;;0.88;75.86;99837.94;126715;1098;25174;-74
2020/12/08 06:36:49;;;;;;;42.08;28.15;;;;;;;0.89;75.87;99836.93;126652;1098;23328;-76
2020/12/08 06:39:17;;;;;;;45.92;27.98;;;;;;;0.89;76.03;99828.03;126608;1099;23331;-77
2020/12/08 06:41:45;;;;;;;47.55;28.05;;;;;;;0.88;75.65;99824.51;126591;1098;23469;-76
2020/12/08 06:44:18;;;;;;;44.13;25.80;;;;;;;0.89;75.85;99828.03;126613;1098;23381;-76
2020/12/08 06:47:00;;;;;;;59.25;34.20;;;;;;;0.88;75.92;99837.94;126684;1098;23383;-77
2020/12/08 06:49:39;;;;;;;50.65;30.68;;;;;;;0.89;76.05;99850.36;126664;1098;24608;-76
2020/12/08 06:52:09;;;;;;;34.70;20.02;;;;;;;0.89;75.74;99860.26;126677;1099;23268;-76
2020/12/08 06:54:38;;;;;;;42.15;25.75;;;;;;;0.87;75.97;99854.18;126646;1098;23530;-76
2020/12/08 06:57:06;;;;;;;40.43;25.87;;;;;;;0.86;75.70;99850.66;126654;1098;26519;-77
2020/12/08 06:59:35;;;;;;;48.48;29.02;;;;;;;0.86;75.60;99850.66;126630;1099;26520;-77
2020/12/08 07:02:03;;;;;;;43.65;25.57;;;;;;;0.88;75.51;99859.42;126672;1098;24829;-76
2020/12/08 07:04:31;;;;;;;47.38;28.75;;;;;;;0.89;75.69;99865.63;126644;1099;24633;-76
2020/12/08 07:07:00;;;;;;;50.38;28.25;;;;;;;0.89;75.71;99874.53;126632;1098;23391;-76
2020/12/08 07:09:33;;;;;;;43.87;25.37;;;;;;;0.93;75.76;99878.63;126576;1098;23476;-76
2020/12/08 07:12:03;;;;;;;45.25;26.55;;;;;;;0.95;75.88;99878.50;126647;1098;23386;-76
2020/12/08 07:14:36;;;;;;;41.30;25.77;;;;;;;0.96;75.66;99878.36;126664;1098;23339;-77
2020/12/08 07:17:04;;;;;;;44.20;27.35;;;;;;;0.94;75.64;99869.60;126713;1098;27126;-77
2020/12/08 07:19:33;;;;;;;44.98;26.25;;;;;;;0.96;75.43;99872.99;126560;1098;26433;-77
2020/12/08 07:22:08;;;;;;;37.13;25.30;;;;;;;0.98;75.41;99881.76;126657;1098;23777;-76
2020/12/08 07:24:43;;;;;;;47.20;27.58;;;;;;;0.99;75.33;99890.66;126646;1098;23427;-77
2020/12/08 07:27:12;;;;;;;51.50;29.27;;;;;;;0.99;75.46;99887.97;126643;1098;23328;-75
2020/12/08 07:29:40;;;;;;;37.93;24.90;;;;;;;0.99;75.58;99894.19;126632;1098;26437;-75
2020/12/08 07:32:09;;;;;;;44.53;25.20;;;;;;;1.00;75.48;99895.02;126582;1098;23396;-76
2020/12/08 07:34:48;;;;;;;39.23;25.47;;;;;;;0.99;75.50;99907.61;126593;1098;23364;-76
2020/12/08 07:37:17;;;;;;;53.50;27.90;;;;;;;1.03;75.47;99901.98;126743;1098;23327;-76
2020/12/08 07:39:45;;;;;;;46.55;27.60;;;;;;;1.07;75.79;99900.67;126688;1098;25514;-76
2020/12/08 07:42:13;;;;;;;37.08;24.52;;;;;;;1.07;75.25;99906.05;126639;1098;23473;-75
2020/12/08 07:44:42;;;;;;;43.37;24.73;;;;;;;1.08;75.42;99905.08;126647;1098;23340;-77
2020/12/08 07:47:12;;;;;;;54.30;30.43;;;;;;;1.07;75.21;99900.67;126189;1099;23326;-79
2020/12/08 07:49:40;;;;;;;44.90;26.43;;;;;;;1.08;75.29;99897.02;126735;1098;23369;-76
2020/12/08 07:52:09;;;;;;;50.05;30.45;;;;;;;1.07;75.25;99900.67;126749;1098;23340;-76
2020/12/08 07:54:38;;;;;;;44.65;26.10;;;;;;;1.04;75.07;99893.75;126757;1098;23376;-75
2020/12/08 07:57:07;;;;;;;45.10;27.25;;;;;;;1.01;75.12;99905.63;126662;1098;23465;-75
2020/12/08 07:59:35;;;;;;;50.10;27.87;;;;;;;1.02;75.11;99893.05;126486;1098;23382;-76
2020/12/08 08:02:03;;;;;;;50.03;29.40;;;;;;;1.07;75.27;99904.23;126622;1098;23533;-76
2020/12/08 08:04:32;;;;;;;45.48;25.20;;;;;;;1.14;75.48;99904.52;126665;1099;26558;-76
2020/12/08 08:07:01;;;;;;;47.00;26.73;;;;;;;1.15;75.66;99907.06;126647;1098;23470;-76
2020/12/08 08:09:30;;;;;;;39.10;22.35;;;;;;;1.16;75.15;99899.84;126594;1098;27212;-79
2020/12/08 08:12:01;;;;;;;37.73;22.13;;;;;;;1.16;74.91;99907.91;126716;1098;23320;-76
2020/12/08 08:14:29;;;;;;;37.83;24.00;;;;;;;1.15;75.00;99898.13;126574;1098;23352;-80
2020/12/08 08:17:07;;;;;;;31.00;18.55;;;;;;;1.16;74.96;99886.41;126584;1098;23321;-77
2020/12/08 08:19:35;;;;;;;43.63;24.55;;;;;;;1.18;74.83;99892.50;126618;1098;27872;-76
2020/12/08 08:22:04;;;;;;;42.85;24.07;;;;;;;1.18;75.13;99897.86;126641;1098;23374;-76
2020/12/08 08:24:32;;;;;;;46.35;25.77;;;;;;;1.23;74.89;99900.96;126685;1098;25037;-76
2020/12/08 08:27:01;;;;;;;38.28;22.00;;;;;;;1.24;75.08;99899.98;126676;1098;24882;-76
2020/12/08 08:29:30;;;;;;;34.13;19.00;;;;;;;1.22;74.68;99899.28;126619;1098;26947;-77
2020/12/08 08:31:59;;;;;;;33.78;19.80;;;;;;;1.20;74.80;99896.73;126623;1098;23318;-77
2020/12/08 08:34:27;;;;;;;43.00;23.70;;;;;;;1.18;74.69;99900.55;126706;1098;23433;-76
2020/12/08 08:36:57;;;;;;;31.05;18.02;;;;;;;1.18;74.69;99908.61;126547;1098;23512;-76
2020/12/08 08:39:25;;;;;;;36.95;22.50;;;;;;;1.22;74.70;99920.77;126600;1098;23379;-77
2020/12/08 08:41:55;;;;;;;41.48;22.67;;;;;;;1.21;74.78;99919.91;126585;1098;26849;-76
2020/12/08 08:44:23;;;;;;;41.08;25.92;;;;;;;1.21;74.67;99921.75;126667;1098;23488;-78
2020/12/08 08:46:52;;;;;;;48.40;26.45;;;;;;;1.22;74.82;99918.09;126604;1098;27803;-76
2020/12/08 08:49:20;;;;;;;46.20;25.68;;;;;;;1.30;74.82;99923.61;126500;1098;23435;-77
2020/12/08 08:51:49;;;;;;;40.08;22.58;;;;;;;1.31;74.70;99925.28;126561;1098;23390;-77
2020/12/08 08:54:18;;;;;;;37.42;21.57;;;;;;;1.34;74.64;99929.52;126623;1098;23398;-75
2020/12/08 08:56:47;;;;;;;43.83;25.70;;;;;;;1.37;74.63;99935.47;126712;1098;23798;-79
2020/12/08 08:59:15;;;;;;;37.85;20.97;;;;;;;1.40;74.48;99937.86;126657;1098;26782;-78
2020/12/08 09:01:43;;;;;;;35.03;19.42;;;;;;;1.35;74.09;99936.61;126672;1098;23329;-76
2020/12/08 09:04:12;;;;;;;38.85;23.52;;;;;;;1.33;74.28;99934.05;126622;1098;27689;-76
2020/12/08 09:06:40;;;;;;;35.17;21.52;;;;;;;1.36;74.05;99944.51;126422;1098;23803;-80
2020/12/08 09:09:08;;;;;;;34.75;19.48;;;;;;;1.33;73.90;99942.12;126533;1098;23392;-77
2020/12/08 09:11:37;;;;;;;47.45;24.47;;;;;;;1.28;74.03;99925.59;126802;1098;23355;-76
2020/12/08 09:14:07;;;;;;;33.98;18.77;;;;;;;1.31;73.87;99924.45;126792;1098;26844;-76
2020/12/08 09:16:36;;;;;;;36.17;18.90;;;;;;;1.30;73.79;99922.73;126743;1098;23391;-77
2020/12/08 09:19:04;;;;;;;40.70;24.25;;;;;;;1.30;73.91;99912.86;126767;1098;23379;-77
2020/12/08 09:21:33;;;;;;;41.18;22.65;;;;;;;1.34;73.90;99913.40;126780;1098;23343;-77
2020/12/08 09:24:01;;;;;;;39.10;24.25;;;;;;;1.40;74.14;99913.67;126833;1098;23452;-76
2020/12/08 09:26:29;;;;;;;48.92;25.97;;;;;;;1.46;73.99;99920.33;126881;1098;23432;-76
2020/12/08 09:28:58;;;;;;;41.23;24.25;;;;;;;1.53;74.16;99923.28;126979;1098;23321;-76
2020/12/08 09:31:26;;;;;;;46.28;24.37;;;;;;;1.60;73.99;99924.39;126745;1098;23385;-76
2020/12/08 09:33:54;;;;;;;40.98;22.52;;;;;;;1.63;74.03;99926.80;126580;1098;23336;-75
2020/12/08 09:36:23;;;;;;;39.73;21.57;;;;;;;1.63;73.76;99938.41;126785;1098;23420;-75
2020/12/08 09:38:51;;;;;;;40.27;22.80;;;;;;;1.64;73.56;99925.80;126705;1098;23392;-82
2020/12/08 09:41:20;;;;;;;34.35;20.72;;;;;;;1.68;73.59;99927.21;126676;1098;23746;-76
2020/12/08 09:43:48;;;;;;;41.70;25.77;;;;;;;1.76;73.90;99924.65;126828;1098;23416;-77
2020/12/08 09:46:17;;;;;;;37.20;24.72;;;;;;;1.92;74.21;99923.19;126636;1098;23382;-77
2020/12/08 09:48:45;;;;;;;41.30;22.65;;;;;;;2.02;73.88;99924.84;126728;1098;23335;-77
2020/12/08 09:51:13;;;;;;;37.75;21.07;;;;;;;2.08;73.54;99919.89;126581;1099;26524;-76
2020/12/08 09:53:42;;;;;;;32.75;19.60;;;;;;;2.05;72.78;99926.42;126418;1099;23378;-76
2020/12/08 09:56:10;;;;;;;37.05;20.25;;;;;;;2.02;72.99;99927.53;126531;1098;26817;-77
2020/12/08 09:58:39;;;;;;;34.73;18.60;;;;;;;2.04;73.02;99916.64;126624;1098;23336;-77
2020/12/08 10:01:07;;;;;;;34.00;18.07;;;;;;;2.05;72.84;99923.73;126539;1098;27088;-76
2020/12/08 10:03:39;;;;;;;34.53;20.35;;;;;;;2.12;73.33;99932.90;126659;1098;23494;-77
2020/12/08 10:06:07;;;;;;;37.03;21.82;;;;;;;2.20;72.85;99932.17;126666;1099;26433;-78
2020/12/08 10:08:35;;;;;;;35.90;20.37;;;;;;;2.24;72.80;99933.55;126695;1098;23533;-76
2020/12/08 10:11:04;;;;;;;44.65;20.95;;;;;;;2.25;72.55;99925.33;126772;1098;23342;-76
2020/12/08 10:13:51;;;;;;;39.20;21.45;;;;;;;2.38;72.95;99924.98;126811;1099;27952;-76
2020/12/08 10:16:22;;;;;;;34.92;20.90;;;;;;;2.56;72.61;99943.90;126832;1098;24461;-75
2020/12/08 10:18:53;;;;;;;30.85;16.97;;;;;;;2.57;71.95;99937.50;126781;1098;23331;-76
2020/12/08 10:21:22;;;;;;;35.92;17.65;;;;;;;2.56;71.92;99937.64;126785;1098;23366;-76
2020/12/08 10:23:52;;;;;;;31.12;20.68;;;;;;;2.52;71.81;99944.33;126749;1099;23431;-76
2020/12/08 10:26:21;;;;;;;37.85;21.15;;;;;;;2.43;71.41;99925.41;126831;1098;23467;-76
2020/12/08 10:28:49;;;;;;;33.43;19.03;;;;;;;2.43;71.63;99927.23;126703;1099;23366;-75
2020/12/08 10:31:19;;;;;;;33.35;21.35;;;;;;;2.46;71.75;99932.33;126586;1099;23336;-78
2020/12/08 10:33:47;;;;;;;35.85;19.00;;;;;;;2.48;71.86;99933.03;126672;1099;23499;-77
2020/12/08 10:36:16;;;;;;;55.78;28.50;;;;;;;2.64;72.11;99919.73;126713;1098;23461;-77
2020/12/08 10:38:44;;;;;;;51.95;28.25;;;;;;;2.85;72.40;99921.31;126626;1098;23334;-77
2020/12/08 10:41:13;;;;;;;48.42;24.45;;;;;;;3.09;72.42;99914.47;126726;1098;27515;-76
2020/12/08 10:43:41;;;;;;;32.08;18.25;;;;;;;3.30;71.88;99925.78;126853;1098;23332;-76
2020/12/08 10:46:09;;;;;;;42.15;22.75;;;;;;;3.49;71.36;99919.38;126641;1098;23366;-77
2020/12/08 10:48:37;;;;;;;39.25;19.92;;;;;;;3.80;71.03;99921.64;126730;1099;26826;-75
2020/12/08 10:51:06;;;;;;;35.80;21.55;;;;;;;4.13;71.27;99911.88;126782;1098;23396;-76
2020/12/08 10:53:35;;;;;;;43.55;24.20;;;;;;;4.75;72.02;99910.77;126766;1099;26500;-76
2020/12/08 10:56:03;;;;;;;41.03;21.67;;;;;;;5.11;70.93;99914.89;126848;1098;23467;-76
2020/12/08 10:58:33;;;;;;;32.23;18.70;;;;;;;5.54;71.22;99912.04;126853;1099;23369;-76
2020/12/08 11:01:01;;;;;;;41.53;22.43;;;;;;;6.05;71.86;99906.42;126871;1098;23393;-76
2020/12/08 11:03:29;;;;;;;38.10;21.33;;;;;;;6.23;69.37;99911.61;126813;1098;26500;-77
2020/12/08 11:05:58;;;;;;;52.17;25.40;;;;;;;5.97;66.74;99923.52;126836;1098;23359;-76
2020/12/08 11:08:26;;;;;;;45.75;25.12;;;;;;;5.69;66.73;99920.32;126883;1098;23533;-76
2020/12/08 11:10:55;;;;;;;34.10;21.15;;;;;;;5.62;66.77;99913.91;126800;1098;26434;-76
2020/12/08 11:13:23;;;;;;;39.58;21.23;;;;;;;5.53;67.04;99927.44;126814;1098;27903;-77
2020/12/08 11:16:04;;;;;;;30.80;20.12;;;;;;;5.23;65.94;99914.59;126843;1098;23366;-76
2020/12/08 11:18:36;;;;;;;50.78;26.25;;;;;;;4.95;66.01;99914.89;126819;1099;27459;-77
2020/12/08 11:21:05;;;;;;;55.60;26.12;;;;;;;4.79;66.36;99918.38;126858;1098;23431;-77
2020/12/08 11:23:34;;;;;;;39.23;20.80;;;;;;;4.62;65.94;99925.59;126787;1098;23341;-75
2020/12/08 11:26:02;;;;;;;48.48;24.60;;;;;;;4.43;66.13;99915.89;126803;1098;23461;-75
2020/12/08 11:28:31;;;;;;;43.48;22.07;;;;;;;4.19;65.91;99903.13;126847;1098;27512;-75